sensor_id;sensor_type;location;lat;lon;timestamp;pressure;altitude;pressure_sealevel;temperature;humidity
17311;BME280;8773;43.300;0.394;2023-04-20T00:00:55;99132.88;;;13.02;nan
17311;BME280;8773;43.300;0.394;2023-04-20T00:03:23;99127.97;;;13.21;nan
17311;BME280;8773;43.300;0.394;2023-04-20T00:05:54;99116.09;;;13.30;nan
17311;BME280;8773;43.300;0.394;2023-04-20T00:08:22;99121.09;;;13.33;nan
17311;BME280;8773;43.300;0.394;2023-04-20T00:10:50;99117.13;;;13.29;nan
17311;BME280;8773;43.300;0.394;2023-04-20T00:13:18;99108.19;;;13.22;nan
17311;BME280;8773;43.300;0.394;2023-04-20T00:15:46;99112.59;;;13.29;nan
17311;BME280;8773;43.300;0.394;2023-04-20T00:18:14;99109.34;;;13.34;nan
17311;BME280;8773;43.300;0.394;2023-04-20T00:20:42;99103.28;;;13.25;nan
17311;BME280;8773;43.300;0.394;2023-04-20T00:23:12;99101.91;;;13.15;nan
17311;BME280;8773;43.300;0.394;2023-04-20T00:25:40;99107.38;;;13.06;nan
17311;BME280;8773;43.300;0.394;2023-04-20T00:28:07;99105.63;;;13.14;nan
17311;BME280;8773;43.300;0.394;2023-04-20T00:30:35;99103.19;;;13.19;nan
17311;BME280;8773;43.300;0.394;2023-04-20T00:33:03;99096.44;;;13.23;nan
17311;BME280;8773;43.300;0.394;2023-04-20T00:35:32;99098.28;;;13.22;nan
17311;BME280;8773;43.300;0.394;2023-04-20T00:38:00;99090.44;;;13.21;nan
17311;BME280;8773;43.300;0.394;2023-04-20T00:40:29;99091.47;;;13.20;nan
17311;BME280;8773;43.300;0.394;2023-04-20T00:43:08;99091.13;;;12.93;nan
17311;BME280;8773;43.300;0.394;2023-04-20T00:45:36;99088.72;;;12.98;nan
17311;BME280;8773;43.300;0.394;2023-04-20T00:48:04;99081.41;;;13.07;nan
17311;BME280;8773;43.300;0.394;2023-04-20T00:50:33;99077.97;;;13.13;nan
17311;BME280;8773;43.300;0.394;2023-04-20T00:53:01;99081.13;;;13.17;nan
17311;BME280;8773;43.300;0.394;2023-04-20T00:55:31;99079.63;;;13.14;nan
17311;BME280;8773;43.300;0.394;2023-04-20T00:57:59;99078.16;;;13.12;nan
17311;BME280;8773;43.300;0.394;2023-04-20T01:00:27;99069.28;;;13.11;nan
17311;BME280;8773;43.300;0.394;2023-04-20T01:02:56;99069.28;;;13.11;nan
17311;BME280;8773;43.300;0.394;2023-04-20T01:05:24;99065.13;;;13.08;nan
17311;BME280;8773;43.300;0.394;2023-04-20T01:07:52;99063.09;;;13.11;nan
17311;BME280;8773;43.300;0.394;2023-04-20T01:10:20;99066.16;;;13.07;nan
17311;BME280;8773;43.300;0.394;2023-04-20T01:12:58;99065.06;;;13.02;nan
17311;BME280;8773;43.300;0.394;2023-04-20T01:15:26;99063.56;;;12.99;nan
17311;BME280;8773;43.300;0.394;2023-04-20T01:17:54;99059.97;;;12.92;nan
17311;BME280;8773;43.300;0.394;2023-04-20T01:20:26;99062.91;;;12.76;nan
17311;BME280;8773;43.300;0.394;2023-04-20T01:22:55;99056.88;;;12.74;nan
17311;BME280;8773;43.300;0.394;2023-04-20T01:25:23;99057.53;;;12.76;nan
17311;BME280;8773;43.300;0.394;2023-04-20T01:27:54;99056.25;;;12.57;nan
17311;BME280;8773;43.300;0.394;2023-04-20T01:30:22;99056.44;;;12.56;nan
17311;BME280;8773;43.300;0.394;2023-04-20T01:32:50;99053.38;;;12.59;nan
17311;BME280;8773;43.300;0.394;2023-04-20T01:35:18;99046.59;;;12.48;nan
17311;BME280;8773;43.300;0.394;2023-04-20T01:37:46;99048.84;;;12.59;nan
17311;BME280;8773;43.300;0.394;2023-04-20T01:40:16;99052.09;;;12.55;nan
17311;BME280;8773;43.300;0.394;2023-04-20T01:42:44;99049.09;;;12.50;nan
17311;BME280;8773;43.300;0.394;2023-04-20T01:45:12;99047.56;;;12.55;nan
17311;BME280;8773;43.300;0.394;2023-04-20T01:47:40;99044.41;;;12.52;nan
17311;BME280;8773;43.300;0.394;2023-04-20T01:50:08;99043.94;;;12.48;nan
17311;BME280;8773;43.300;0.394;2023-04-20T01:52:36;99042.44;;;12.46;nan
17311;BME280;8773;43.300;0.394;2023-04-20T01:55:05;99038.97;;;12.30;nan
17311;BME280;8773;43.300;0.394;2023-04-20T01:57:35;99040.44;;;12.33;nan
17311;BME280;8773;43.300;0.394;2023-04-20T02:00:05;99032.41;;;12.33;nan
17311;BME280;8773;43.300;0.394;2023-04-20T02:02:34;99026.97;;;12.26;nan
17311;BME280;8773;43.300;0.394;2023-04-20T02:05:02;99025.66;;;12.22;nan
17311;BME280;8773;43.300;0.394;2023-04-20T02:07:30;99026.03;;;12.19;nan
17311;BME280;8773;43.300;0.394;2023-04-20T02:09:58;99020.75;;;12.11;nan
17311;BME280;8773;43.300;0.394;2023-04-20T02:12:26;99020.84;;;12.03;nan
17311;BME280;8773;43.300;0.394;2023-04-20T02:14:55;99024.81;;;12.07;nan
17311;BME280;8773;43.300;0.394;2023-04-20T02:17:23;99015.84;;;12.00;nan
17311;BME280;8773;43.300;0.394;2023-04-20T02:19:51;99019.53;;;11.99;nan
17311;BME280;8773;43.300;0.394;2023-04-20T02:22:19;99016.44;;;11.72;nan
17311;BME280;8773;43.300;0.394;2023-04-20T02:24:47;99019.00;;;11.51;nan
17311;BME280;8773;43.300;0.394;2023-04-20T02:27:15;99013.13;;;11.70;nan
17311;BME280;8773;43.300;0.394;2023-04-20T02:29:43;99019.34;;;11.86;nan
17311;BME280;8773;43.300;0.394;2023-04-20T02:32:12;99017.88;;;11.98;nan
17311;BME280;8773;43.300;0.394;2023-04-20T02:34:40;99011.31;;;12.00;nan
17311;BME280;8773;43.300;0.394;2023-04-20T02:37:09;99018.53;;;12.00;nan
17311;BME280;8773;43.300;0.394;2023-04-20T02:39:37;99020.00;;;12.02;nan
17311;BME280;8773;43.300;0.394;2023-04-20T02:42:05;99024.81;;;11.92;nan
17311;BME280;8773;43.300;0.394;2023-04-20T02:44:33;99022.63;;;11.73;nan
17311;BME280;8773;43.300;0.394;2023-04-20T02:47:01;99018.47;;;11.70;nan
17311;BME280;8773;43.300;0.394;2023-04-20T02:49:30;99021.41;;;11.61;nan
17311;BME280;8773;43.300;0.394;2023-04-20T02:51:58;99021.66;;;11.51;nan
17311;BME280;8773;43.300;0.394;2023-04-20T02:54:26;99024.91;;;11.61;nan
17311;BME280;8773;43.300;0.394;2023-04-20T02:56:54;99023.94;;;11.54;nan
17311;BME280;8773;43.300;0.394;2023-04-20T02:59:23;99021.88;;;11.64;nan
17311;BME280;8773;43.300;0.394;2023-04-20T03:01:51;99025.50;;;11.71;nan
17311;BME280;8773;43.300;0.394;2023-04-20T03:04:19;99022.94;;;11.78;nan
17311;BME280;8773;43.300;0.394;2023-04-20T03:06:50;99019.25;;;11.79;nan
17311;BME280;8773;43.300;0.394;2023-04-20T03:09:19;99018.41;;;11.79;nan
17311;BME280;8773;43.300;0.394;2023-04-20T03:11:48;99017.09;;;11.74;nan
17311;BME280;8773;43.300;0.394;2023-04-20T03:14:16;99018.59;;;11.77;nan
17311;BME280;8773;43.300;0.394;2023-04-20T03:16:44;99023.41;;;11.82;nan
17311;BME280;8773;43.300;0.394;2023-04-20T03:19:12;99016.09;;;11.75;nan
17311;BME280;8773;43.300;0.394;2023-04-20T03:21:41;99016.88;;;11.61;nan
17311;BME280;8773;43.300;0.394;2023-04-20T03:24:10;99025.56;;;11.63;nan
17311;BME280;8773;43.300;0.394;2023-04-20T03:26:38;99024.78;;;11.55;nan
17311;BME280;8773;43.300;0.394;2023-04-20T03:29:06;99028.41;;;11.62;nan
17311;BME280;8773;43.300;0.394;2023-04-20T03:31:34;99031.78;;;11.56;nan
17311;BME280;8773;43.300;0.394;2023-04-20T03:34:02;99027.94;;;11.58;nan
17311;BME280;8773;43.300;0.394;2023-04-20T03:36:30;99026.38;;;11.64;nan
17311;BME280;8773;43.300;0.394;2023-04-20T03:38:59;99027.38;;;11.48;nan
17311;BME280;8773;43.300;0.394;2023-04-20T03:41:29;99025.72;;;11.47;nan
17311;BME280;8773;43.300;0.394;2023-04-20T03:43:57;99032.34;;;11.51;nan
17311;BME280;8773;43.300;0.394;2023-04-20T03:46:25;99017.16;;;11.52;nan
17311;BME280;8773;43.300;0.394;2023-04-20T03:48:53;99022.50;;;11.52;nan
17311;BME280;8773;43.300;0.394;2023-04-20T03:51:21;99017.31;;;11.50;nan
17311;BME280;8773;43.300;0.394;2023-04-20T03:53:49;99024.34;;;11.51;nan
17311;BME280;8773;43.300;0.394;2023-04-20T03:56:17;99025.16;;;11.52;nan
17311;BME280;8773;43.300;0.394;2023-04-20T03:58:46;99027.00;;;11.51;nan
17311;BME280;8773;43.300;0.394;2023-04-20T04:01:14;99027.38;;;11.48;nan
17311;BME280;8773;43.300;0.394;2023-04-20T04:03:42;99030.03;;;11.48;nan
17311;BME280;8773;43.300;0.394;2023-04-20T04:06:11;99030.56;;;11.44;nan
17311;BME280;8773;43.300;0.394;2023-04-20T04:08:39;99029.38;;;11.46;nan
17311;BME280;8773;43.300;0.394;2023-04-20T04:11:07;99033.06;;;11.45;nan
17311;BME280;8773;43.300;0.394;2023-04-20T04:13:35;99030.44;;;11.37;nan
17311;BME280;8773;43.300;0.394;2023-04-20T04:16:04;99033.59;;;11.40;nan
17311;BME280;8773;43.300;0.394;2023-04-20T04:18:33;99032.81;;;11.32;nan
17311;BME280;8773;43.300;0.394;2023-04-20T04:21:01;99032.00;;;11.31;nan
17311;BME280;8773;43.300;0.394;2023-04-20T04:23:29;99037.69;;;11.28;nan
17311;BME280;8773;43.300;0.394;2023-04-20T04:25:59;99031.00;;;11.01;nan
17311;BME280;8773;43.300;0.394;2023-04-20T04:28:28;99030.47;;;11.06;nan
17311;BME280;8773;43.300;0.394;2023-04-20T04:30:56;99032.22;;;11.14;nan
17311;BME280;8773;43.300;0.394;2023-04-20T04:33:28;99030.56;;;11.13;nan
17311;BME280;8773;43.300;0.394;2023-04-20T04:35:56;99042.09;;;11.13;nan
17311;BME280;8773;43.300;0.394;2023-04-20T04:38:24;99032.22;;;11.14;nan
17311;BME280;8773;43.300;0.394;2023-04-20T04:40:53;99033.97;;;11.06;nan
17311;BME280;8773;43.300;0.394;2023-04-20T04:43:22;99031.97;;;11.08;nan
17311;BME280;8773;43.300;0.394;2023-04-20T04:45:51;99031.47;;;11.05;nan
17311;BME280;8773;43.300;0.394;2023-04-20T04:48:21;99036.66;;;11.06;nan
17311;BME280;8773;43.300;0.394;2023-04-20T04:50:50;99036.81;;;11.05;nan
17311;BME280;8773;43.300;0.394;2023-04-20T04:53:18;99040.22;;;10.91;nan
17311;BME280;8773;43.300;0.394;2023-04-20T04:55:46;99042.06;;;10.90;nan
17311;BME280;8773;43.300;0.394;2023-04-20T04:58:14;99043.09;;;10.81;nan
17311;BME280;8773;43.300;0.394;2023-04-20T05:00:45;99047.59;;;10.89;nan
17311;BME280;8773;43.300;0.394;2023-04-20T05:03:13;99047.78;;;10.79;nan
17311;BME280;8773;43.300;0.394;2023-04-20T05:05:41;99049.84;;;10.69;nan
17311;BME280;8773;43.300;0.394;2023-04-20T05:08:11;99057.94;;;10.84;nan
17311;BME280;8773;43.300;0.394;2023-04-20T05:10:39;99052.75;;;10.90;nan
17311;BME280;8773;43.300;0.394;2023-04-20T05:13:07;99053.72;;;10.97;nan
17311;BME280;8773;43.300;0.394;2023-04-20T05:15:35;99049.03;;;10.99;nan
17311;BME280;8773;43.300;0.394;2023-04-20T05:18:03;99056.38;;;10.97;nan
17311;BME280;8773;43.300;0.394;2023-04-20T05:20:31;99060.59;;;10.92;nan
17311;BME280;8773;43.300;0.394;2023-04-20T05:22:59;99059.09;;;10.89;nan
17311;BME280;8773;43.300;0.394;2023-04-20T05:25:29;99057.34;;;11.04;nan
17311;BME280;8773;43.300;0.394;2023-04-20T05:28:01;99059.50;;;11.09;nan
17311;BME280;8773;43.300;0.394;2023-04-20T05:30:29;99062.59;;;11.21;nan
17311;BME280;8773;43.300;0.394;2023-04-20T05:32:57;99057.25;;;11.21;nan
17311;BME280;8773;43.300;0.394;2023-04-20T05:35:25;99054.56;;;11.29;nan
17311;BME280;8773;43.300;0.394;2023-04-20T05:37:53;99058.56;;;11.25;nan
17311;BME280;8773;43.300;0.394;2023-04-20T05:40:21;99060.03;;;11.35;nan
17311;BME280;8773;43.300;0.394;2023-04-20T05:42:53;99057.13;;;11.45;nan
17311;BME280;8773;43.300;0.394;2023-04-20T05:45:21;99056.47;;;11.43;nan
17311;BME280;8773;43.300;0.394;2023-04-20T05:47:52;99060.81;;;11.44;nan
17311;BME280;8773;43.300;0.394;2023-04-20T05:50:21;99055.75;;;11.49;nan
17311;BME280;8773;43.300;0.394;2023-04-20T05:52:50;99058.13;;;11.44;nan
17311;BME280;8773;43.300;0.394;2023-04-20T05:55:19;99049.31;;;11.58;nan
17311;BME280;8773;43.300;0.394;2023-04-20T05:57:50;99052.53;;;11.77;nan
17311;BME280;8773;43.300;0.394;2023-04-20T06:00:20;99040.50;;;11.95;nan
17311;BME280;8773;43.300;0.394;2023-04-20T06:02:50;99053.44;;;12.21;nan
17311;BME280;8773;43.300;0.394;2023-04-20T06:05:20;99052.13;;;12.17;nan
17311;BME280;8773;43.300;0.394;2023-04-20T06:07:48;99059.19;;;12.33;nan
17311;BME280;8773;43.300;0.394;2023-04-20T06:10:16;99054.34;;;12.43;nan
17311;BME280;8773;43.300;0.394;2023-04-20T06:12:44;99051.88;;;12.41;nan
17311;BME280;8773;43.300;0.394;2023-04-20T06:15:13;99055.13;;;12.81;nan
17311;BME280;8773;43.300;0.394;2023-04-20T06:17:42;99048.19;;;13.65;nan
17311;BME280;8773;43.300;0.394;2023-04-20T06:20:10;99045.03;;;14.32;nan
17311;BME280;8773;43.300;0.394;2023-04-20T06:22:41;99041.69;;;14.65;nan
17311;BME280;8773;43.300;0.394;2023-04-20T06:25:13;99042.59;;;15.46;nan
17311;BME280;8773;43.300;0.394;2023-04-20T06:27:41;99037.09;;;16.14;nan
17311;BME280;8773;43.300;0.394;2023-04-20T06:30:11;99041.06;;;16.89;nan
17311;BME280;8773;43.300;0.394;2023-04-20T06:32:39;99035.59;;;17.40;nan
17311;BME280;8773;43.300;0.394;2023-04-20T06:35:09;99022.00;;;18.10;nan
17311;BME280;8773;43.300;0.394;2023-04-20T06:37:39;99018.28;;;18.47;nan
17311;BME280;8773;43.300;0.394;2023-04-20T06:40:07;99027.09;;;18.97;nan
17311;BME280;8773;43.300;0.394;2023-04-20T06:42:35;99028.94;;;18.67;nan
17311;BME280;8773;43.300;0.394;2023-04-20T06:45:04;99038.25;;;18.89;nan
17311;BME280;8773;43.300;0.394;2023-04-20T06:47:33;98951.69;;;18.89;nan
17311;BME280;8773;43.300;0.394;2023-04-20T06:50:02;99022.22;;;19.66;nan
17311;BME280;8773;43.300;0.394;2023-04-20T06:52:34;99025.84;;;19.60;nan
17311;BME280;8773;43.300;0.394;2023-04-20T06:55:03;99028.63;;;19.23;nan
17311;BME280;8773;43.300;0.394;2023-04-20T06:57:32;99027.44;;;19.19;nan
17311;BME280;8773;43.300;0.394;2023-04-20T07:00:00;99027.00;;;19.52;nan
17311;BME280;8773;43.300;0.394;2023-04-20T07:02:28;99018.34;;;19.97;nan
17311;BME280;8773;43.300;0.394;2023-04-20T07:04:59;99025.81;;;20.25;nan
17311;BME280;8773;43.300;0.394;2023-04-20T07:07:28;99027.09;;;20.22;nan
17311;BME280;8773;43.300;0.394;2023-04-20T07:09:57;99021.25;;;20.14;nan
17311;BME280;8773;43.300;0.394;2023-04-20T07:12:26;99024.50;;;20.04;nan
17311;BME280;8773;43.300;0.394;2023-04-20T07:14:54;99031.00;;;20.26;nan
17311;BME280;8773;43.300;0.394;2023-04-20T07:17:26;99032.00;;;20.95;nan
17311;BME280;8773;43.300;0.394;2023-04-20T07:19:54;99029.50;;;21.34;nan
17311;BME280;8773;43.300;0.394;2023-04-20T07:22:23;99029.50;;;21.34;nan
17311;BME280;8773;43.300;0.394;2023-04-20T07:24:51;61455.69;;;-146.88;100.00
17311;BME280;8773;43.300;0.394;2023-04-20T07:27:21;61455.69;;;-146.88;100.00
17311;BME280;8773;43.300;0.394;2023-04-20T07:29:49;61455.69;;;-146.88;100.00
17311;BME280;8773;43.300;0.394;2023-04-20T07:32:17;61455.69;;;-146.88;100.00
17311;BME280;8773;43.300;0.394;2023-04-20T07:34:45;61455.69;;;-146.88;100.00
17311;BME280;8773;43.300;0.394;2023-04-20T07:37:13;61455.69;;;-146.88;100.00
17311;BME280;8773;43.300;0.394;2023-04-20T07:39:41;99029.50;;;21.34;nan
17311;BME280;8773;43.300;0.394;2023-04-20T07:42:09;98746.28;;;22.21;nan
17311;BME280;8773;43.300;0.394;2023-04-20T07:44:39;99035.06;;;23.44;nan
17311;BME280;8773;43.300;0.394;2023-04-20T07:47:09;99029.75;;;23.32;nan
17311;BME280;8773;43.300;0.394;2023-04-20T07:49:37;99028.81;;;22.56;nan
17311;BME280;8773;43.300;0.394;2023-04-20T07:52:06;99029.75;;;22.28;nan
17311;BME280;8773;43.300;0.394;2023-04-20T07:54:42;99032.38;;;22.40;nan
17311;BME280;8773;43.300;0.394;2023-04-20T07:57:10;99027.19;;;22.21;nan
17311;BME280;8773;43.300;0.394;2023-04-20T07:59:39;99026.53;;;22.14;nan
17311;BME280;8773;43.300;0.394;2023-04-20T08:02:07;99038.97;;;21.77;nan
17311;BME280;8773;43.300;0.394;2023-04-20T08:04:36;99031.50;;;21.55;nan
17311;BME280;8773;43.300;0.394;2023-04-20T08:07:04;99035.94;;;21.45;nan
17311;BME280;8773;43.300;0.394;2023-04-20T08:09:32;99048.19;;;20.90;nan
17311;BME280;8773;43.300;0.394;2023-04-20T08:12:00;99043.09;;;20.00;nan
17311;BME280;8773;43.300;0.394;2023-04-20T08:14:28;99043.53;;;19.86;nan
17311;BME280;8773;43.300;0.394;2023-04-20T08:16:57;99049.13;;;19.49;nan
17311;BME280;8773;43.300;0.394;2023-04-20T08:19:25;99050.75;;;19.50;nan
17311;BME280;8773;43.300;0.394;2023-04-20T08:21:54;99052.47;;;19.15;nan
17311;BME280;8773;43.300;0.394;2023-04-20T08:24:22;99063.16;;;18.55;nan
17311;BME280;8773;43.300;0.394;2023-04-20T08:26:50;99057.38;;;18.51;nan
17311;BME280;8773;43.300;0.394;2023-04-20T08:29:18;99059.84;;;18.53;nan
17311;BME280;8773;43.300;0.394;2023-04-20T08:31:46;99053.56;;;18.59;nan
17311;BME280;8773;43.300;0.394;2023-04-20T08:34:17;99053.09;;;18.98;nan
17311;BME280;8773;43.300;0.394;2023-04-20T08:36:45;99050.53;;;19.03;nan
17311;BME280;8773;43.300;0.394;2023-04-20T08:39:17;99050.41;;;18.80;nan
17311;BME280;8773;43.300;0.394;2023-04-20T08:41:46;99051.38;;;18.67;nan
17311;BME280;8773;43.300;0.394;2023-04-20T08:44:15;99044.97;;;18.98;nan
17311;BME280;8773;43.300;0.394;2023-04-20T08:46:46;99038.28;;;19.19;nan
17311;BME280;8773;43.300;0.394;2023-04-20T08:49:15;99034.59;;;19.32;nan
17311;BME280;8773;43.300;0.394;2023-04-20T08:51:47;99039.38;;;19.30;nan
17311;BME280;8773;43.300;0.394;2023-04-20T08:54:15;99046.78;;;19.05;nan
17311;BME280;8773;43.300;0.394;2023-04-20T08:56:45;99051.22;;;18.99;nan
17311;BME280;8773;43.300;0.394;2023-04-20T08:59:13;99050.38;;;18.98;nan
17311;BME280;8773;43.300;0.394;2023-04-20T09:01:43;99044.06;;;19.05;nan
17311;BME280;8773;43.300;0.394;2023-04-20T09:04:15;99041.66;;;19.15;nan
17311;BME280;8773;43.300;0.394;2023-04-20T09:06:46;99038.81;;;19.10;nan
17311;BME280;8773;43.300;0.394;2023-04-20T09:09:16;99040.66;;;19.27;nan
17311;BME280;8773;43.300;0.394;2023-04-20T09:11:44;99037.59;;;19.06;nan
17311;BME280;8773;43.300;0.394;2023-04-20T09:14:13;99032.72;;;19.32;nan
17311;BME280;8773;43.300;0.394;2023-04-20T09:16:49;99025.44;;;19.45;nan
17311;BME280;8773;43.300;0.394;2023-04-20T09:19:21;99024.59;;;19.44;nan
17311;BME280;8773;43.300;0.394;2023-04-20T09:21:54;99011.94;;;19.26;nan
17311;BME280;8773;43.300;0.394;2023-04-20T09:24:24;99015.66;;;19.44;nan
17311;BME280;8773;43.300;0.394;2023-04-20T09:26:57;99020.28;;;19.55;nan
17311;BME280;8773;43.300;0.394;2023-04-20T09:29:25;99014.81;;;19.31;nan
17311;BME280;8773;43.300;0.394;2023-04-20T09:31:53;99019.75;;;19.34;nan
17311;BME280;8773;43.300;0.394;2023-04-20T09:34:23;99026.06;;;19.28;nan
17311;BME280;8773;43.300;0.394;2023-04-20T09:36:56;99026.84;;;19.47;nan
17311;BME280;8773;43.300;0.394;2023-04-20T09:39:24;99036.16;;;19.51;nan
17311;BME280;8773;43.300;0.394;2023-04-20T09:41:52;99030.84;;;19.45;nan
17311;BME280;8773;43.300;0.394;2023-04-20T09:44:20;99034.94;;;19.65;nan
17311;BME280;8773;43.300;0.394;2023-04-20T09:46:48;99030.47;;;19.41;nan
17311;BME280;8773;43.300;0.394;2023-04-20T09:49:17;99022.63;;;19.51;nan
17311;BME280;8773;43.300;0.394;2023-04-20T09:51:47;99025.84;;;19.60;nan
17311;BME280;8773;43.300;0.394;2023-04-20T09:54:17;99027.91;;;19.46;nan
17311;BME280;8773;43.300;0.394;2023-04-20T09:56:47;99023.78;;;19.44;nan
17311;BME280;8773;43.300;0.394;2023-04-20T09:59:16;99021.19;;;19.90;nan
17311;BME280;8773;43.300;0.394;2023-04-20T10:01:45;99025.25;;;20.11;nan
17311;BME280;8773;43.300;0.394;2023-04-20T10:04:17;99016.06;;;20.12;nan
17311;BME280;8773;43.300;0.394;2023-04-20T10:06:51;99012.50;;;20.23;nan
17311;BME280;8773;43.300;0.394;2023-04-20T10:09:23;99012.31;;;19.60;nan
17311;BME280;8773;43.300;0.394;2023-04-20T10:11:52;99007.41;;;19.92;nan
17311;BME280;8773;43.300;0.394;2023-04-20T10:14:23;99010.03;;;20.33;nan
17311;BME280;8773;43.300;0.394;2023-04-20T10:16:59;99001.75;;;20.52;nan
17311;BME280;8773;43.300;0.394;2023-04-20T10:19:36;99004.84;;;20.20;nan
17311;BME280;8773;43.300;0.394;2023-04-20T10:22:05;98997.63;;;20.49;nan
17311;BME280;8773;43.300;0.394;2023-04-20T10:24:35;98988.78;;;20.42;nan
17311;BME280;8773;43.300;0.394;2023-04-20T10:27:15;98995.41;;;20.46;nan
17311;BME280;8773;43.300;0.394;2023-04-20T10:29:43;98996.47;;;20.85;nan
17311;BME280;8773;43.300;0.394;2023-04-20T10:32:20;98992.84;;;20.68;nan
17311;BME280;8773;43.300;0.394;2023-04-20T10:34:59;98991.31;;;20.72;nan
17311;BME280;8773;43.300;0.394;2023-04-20T10:37:27;98989.78;;;20.76;nan
17311;BME280;8773;43.300;0.394;2023-04-20T10:39:58;98980.69;;;20.82;nan
17311;BME280;8773;43.300;0.394;2023-04-20T10:42:27;98981.06;;;20.74;nan
17311;BME280;8773;43.300;0.394;2023-04-20T10:44:55;98986.69;;;20.84;nan
17311;BME280;8773;43.300;0.394;2023-04-20T10:47:27;98974.91;;;20.79;nan
17311;BME280;8773;43.300;0.394;2023-04-20T10:50:05;98966.22;;;20.65;nan
17311;BME280;8773;43.300;0.394;2023-04-20T10:52:35;98969.69;;;20.49;nan
17311;BME280;8773;43.300;0.394;2023-04-20T10:55:18;98981.00;;;20.57;nan
17311;BME280;8773;43.300;0.394;2023-04-20T10:57:46;98972.16;;;20.62;nan
17311;BME280;8773;43.300;0.394;2023-04-20T11:00:15;98969.81;;;20.82;nan
17311;BME280;8773;43.300;0.394;2023-04-20T11:02:47;98968.28;;;20.98;nan
17311;BME280;8773;43.300;0.394;2023-04-20T11:05:16;98962.34;;;21.29;nan
17311;BME280;8773;43.300;0.394;2023-04-20T11:07:52;98955.59;;;21.32;nan
17311;BME280;8773;43.300;0.394;2023-04-20T11:10:23;98951.03;;;21.21;nan
17311;BME280;8773;43.300;0.394;2023-04-20T11:12:52;98958.22;;;21.27;nan
17311;BME280;8773;43.300;0.394;2023-04-20T11:15:30;98952.78;;;21.27;nan
17311;BME280;8773;43.300;0.394;2023-04-20T11:18:05;98942.03;;;21.49;nan
17311;BME280;8773;43.300;0.394;2023-04-20T11:20:34;98955.34;;;21.33;nan
17311;BME280;8773;43.300;0.394;2023-04-20T11:23:02;98948.22;;;21.44;nan
17311;BME280;8773;43.300;0.394;2023-04-20T11:25:33;98937.94;;;21.63;nan
17311;BME280;8773;43.300;0.394;2023-04-20T11:28:04;98939.91;;;21.68;nan
17311;BME280;8773;43.300;0.394;2023-04-20T11:30:38;98935.88;;;21.87;nan
17311;BME280;8773;43.300;0.394;2023-04-20T11:33:06;98938.97;;;21.62;nan
17311;BME280;8773;43.300;0.394;2023-04-20T11:35:38;98932.09;;;21.88;nan
17311;BME280;8773;43.300;0.394;2023-04-20T11:38:07;98923.72;;;21.94;nan
17311;BME280;8773;43.300;0.394;2023-04-20T11:40:36;98924.06;;;21.98;nan
17311;BME280;8773;43.300;0.394;2023-04-20T11:43:04;98920.81;;;21.79;nan
17311;BME280;8773;43.300;0.394;2023-04-20T11:45:33;98930.59;;;21.63;nan
17311;BME280;8773;43.300;0.394;2023-04-20T11:48:03;98922.81;;;21.22;nan
17311;BME280;8773;43.300;0.394;2023-04-20T11:50:31;98912.91;;;21.44;nan
17311;BME280;8773;43.300;0.394;2023-04-20T11:52:59;98910.97;;;21.95;nan
17311;BME280;8773;43.300;0.394;2023-04-20T11:55:28;98914.97;;;21.71;nan
17311;BME280;8773;43.300;0.394;2023-04-20T11:57:57;98915.00;;;21.59;nan
17311;BME280;8773;43.300;0.394;2023-04-20T12:00:25;98903.81;;;21.55;nan
17311;BME280;8773;43.300;0.394;2023-04-20T12:02:53;98911.84;;;21.45;nan
17311;BME280;8773;43.300;0.394;2023-04-20T12:05:21;98906.25;;;21.69;nan
17311;BME280;8773;43.300;0.394;2023-04-20T12:07:49;98904.16;;;21.92;nan
17311;BME280;8773;43.300;0.394;2023-04-20T12:10:17;98900.84;;;22.29;nan
17311;BME280;8773;43.300;0.394;2023-04-20T12:12:45;98901.03;;;22.22;nan
17311;BME280;8773;43.300;0.394;2023-04-20T12:15:16;98900.88;;;22.12;nan
17311;BME280;8773;43.300;0.394;2023-04-20T12:17:44;98899.09;;;22.40;nan
17311;BME280;8773;43.300;0.394;2023-04-20T12:20:12;98896.97;;;22.25;nan
17311;BME280;8773;43.300;0.394;2023-04-20T12:22:40;98900.59;;;21.58;nan
17311;BME280;8773;43.300;0.394;2023-04-20T12:25:08;98907.38;;;21.89;nan
17311;BME280;8773;43.300;0.394;2023-04-20T12:27:36;98903.78;;;22.06;nan
17311;BME280;8773;43.300;0.394;2023-04-20T12:30:06;98900.97;;;22.17;nan
17311;BME280;8773;43.300;0.394;2023-04-20T12:32:45;98896.03;;;22.36;nan
17311;BME280;8773;43.300;0.394;2023-04-20T12:35:13;98893.63;;;22.18;nan
17311;BME280;8773;43.300;0.394;2023-04-20T12:37:44;98899.78;;;22.52;nan
17311;BME280;8773;43.300;0.394;2023-04-20T12:40:12;98890.53;;;22.31;nan
17311;BME280;8773;43.300;0.394;2023-04-20T12:42:40;98884.09;;;22.59;nan
17311;BME280;8773;43.300;0.394;2023-04-20T12:45:08;98889.78;;;23.06;nan
17311;BME280;8773;43.300;0.394;2023-04-20T12:47:36;98882.38;;;22.75;nan
17311;BME280;8773;43.300;0.394;2023-04-20T12:50:07;98888.72;;;23.39;nan
17311;BME280;8773;43.300;0.394;2023-04-20T12:52:38;98886.47;;;23.68;nan
17311;BME280;8773;43.300;0.394;2023-04-20T12:55:07;98881.06;;;23.73;nan
17311;BME280;8773;43.300;0.394;2023-04-20T12:57:35;98864.00;;;23.88;nan
17311;BME280;8773;43.300;0.394;2023-04-20T13:00:05;98882.56;;;23.91;nan
17311;BME280;8773;43.300;0.394;2023-04-20T13:02:34;98901.84;;;23.47;nan
17311;BME280;8773;43.300;0.394;2023-04-20T13:05:03;98895.00;;;23.77;nan
17311;BME280;8773;43.300;0.394;2023-04-20T13:07:32;98887.75;;;23.92;nan
17311;BME280;8773;43.300;0.394;2023-04-20T13:10:00;98894.09;;;24.03;nan
17311;BME280;8773;43.300;0.394;2023-04-20T13:12:29;98891.94;;;24.05;nan
17311;BME280;8773;43.300;0.394;2023-04-20T13:14:57;98884.84;;;24.04;nan
17311;BME280;8773;43.300;0.394;2023-04-20T13:17:25;98881.56;;;24.02;nan
17311;BME280;8773;43.300;0.394;2023-04-20T13:19:53;98893.41;;;23.81;nan
17311;BME280;8773;43.300;0.394;2023-04-20T13:22:21;98892.63;;;23.85;nan
17311;BME280;8773;43.300;0.394;2023-04-20T13:24:50;98886.88;;;23.82;nan
17311;BME280;8773;43.300;0.394;2023-04-20T13:27:18;98891.66;;;23.65;nan
17311;BME280;8773;43.300;0.394;2023-04-20T13:29:46;98885.78;;;23.46;nan
17311;BME280;8773;43.300;0.394;2023-04-20T13:32:14;98879.22;;;23.79;nan
17311;BME280;8773;43.300;0.394;2023-04-20T13:34:42;98878.25;;;24.00;nan
17311;BME280;8773;43.300;0.394;2023-04-20T13:37:10;98891.25;;;23.83;nan
17311;BME280;8773;43.300;0.394;2023-04-20T13:39:38;98885.13;;;24.08;nan
17311;BME280;8773;43.300;0.394;2023-04-20T13:42:08;98887.16;;;24.38;nan